Terminal Aerodrome Forecast
Issued by NWS

Home | Current Version | Previous Version | Text Only | Print | Product List | Glossary On
Versions: 1 2 3 4 5 6 7 8 9 10 11 12 13 14 15 16 17 18 19 20 21 22 23 24 25 26 27 28 29 30 31
000
FTUS46 KMTR 200300 AAA
TAFSFO
TAF AMD
KSFO 200304Z 2003/2106 28006KT P6SM SCT020 BKN180
     FM200700 23006KT P6SM BKN020
     FM201000 25006KT P6SM OVC025 PROB30 2014/2018 6SM -RA BR
     FM210500 27012KT P6SM SCT050=

USA.gov is the U.S. government's official web portal to all federal, state and local government web resources and services.